createdAt,value
2018-12-23T00:02:08.370Z,5.57
2018-12-23T00:04:35.728Z,5.50
2018-12-23T00:07:03.066Z,5.57
2018-12-23T00:09:30.522Z,5.77
2018-12-23T00:11:57.850Z,5.83
2018-12-23T00:14:25.235Z,5.70
2018-12-23T00:16:52.588Z,5.67
2018-12-23T00:19:20.042Z,5.70
2018-12-23T00:21:47.411Z,5.87
2018-12-23T00:24:14.908Z,5.50
2018-12-23T00:26:42.315Z,5.93
2018-12-23T00:29:09.675Z,11.60
2018-12-23T00:31:37.026Z,8.50
2018-12-23T00:34:04.413Z,13.60
2018-12-23T00:36:31.750Z,14.30
2018-12-23T00:38:59.095Z,12.30
2018-12-23T00:41:26.456Z,11.73
2018-12-23T00:43:53.797Z,8.13
2018-12-23T00:46:21.333Z,8.90
2018-12-23T00:48:48.834Z,7.97
2018-12-23T00:51:16.195Z,6.80
2018-12-23T00:53:43.523Z,7.20
2018-12-23T00:56:11.295Z,7.10
2018-12-23T00:58:38.664Z,7.90
2018-12-23T01:01:06.034Z,6.87
2018-12-23T01:03:33.396Z,7.37
2018-12-23T01:06:00.833Z,8.80
2018-12-23T01:08:28.151Z,7.07
2018-12-23T01:10:55.511Z,11.53
2018-12-23T01:13:22.887Z,13.20
2018-12-23T01:15:50.253Z,12.60
2018-12-23T01:18:17.595Z,13.53
2018-12-23T01:20:44.941Z,11.30
2018-12-23T01:23:12.383Z,12.87
2018-12-23T01:25:39.788Z,14.73
2018-12-23T01:28:07.098Z,14.93
2018-12-23T01:30:34.474Z,15.90
2018-12-23T01:33:02.280Z,15.67
2018-12-23T01:35:37.023Z,15.53
2018-12-23T01:37:59.087Z,15.80
2018-12-23T01:40:26.451Z,15.90
2018-12-23T01:42:53.906Z,16.47
2018-12-23T01:45:21.273Z,16.20
2018-12-23T01:47:48.598Z,15.57
2018-12-23T01:50:15.966Z,16.60
2018-12-23T01:52:43.310Z,15.30
2018-12-23T01:55:10.706Z,16.07
2018-12-23T01:57:38.024Z,17.63
2018-12-23T02:00:05.748Z,15.53
2018-12-23T02:02:33.107Z,15.43
2018-12-23T02:05:00.542Z,15.23
2018-12-23T02:07:27.992Z,15.40
2018-12-23T02:09:55.308Z,16.70
2018-12-23T02:12:22.668Z,14.43
2018-12-23T02:14:50.043Z,15.27
2018-12-23T02:17:17.400Z,14.50
2018-12-23T02:19:44.752Z,14.60
2018-12-23T02:22:12.146Z,15.37
2018-12-23T02:24:39.539Z,15.20
2018-12-23T02:27:06.899Z,13.40
2018-12-23T02:29:34.290Z,13.40
2018-12-23T02:32:01.708Z,12.93
2018-12-23T02:34:29.059Z,11.77
2018-12-23T02:36:56.438Z,11.90
2018-12-23T02:39:23.875Z,12.63
2018-12-23T02:41:51.250Z,10.90
2018-12-23T02:44:18.598Z,11.33
2018-12-23T02:46:45.950Z,11.70
2018-12-23T02:49:13.298Z,10.57
2018-12-23T02:51:40.646Z,10.63
2018-12-23T02:54:08.026Z,11.10
2018-12-23T02:56:35.382Z,10.87
2018-12-23T02:59:02.709Z,11.30
2018-12-23T03:01:30.069Z,11.77
2018-12-23T03:03:57.422Z,10.80
2018-12-23T03:06:24.795Z,11.93
2018-12-23T03:08:52.131Z,10.03
2018-12-23T03:11:19.620Z,10.67
2018-12-23T03:13:46.955Z,8.47
2018-12-23T03:16:14.295Z,8.17
2018-12-23T03:18:41.775Z,9.33
2018-12-23T03:21:09.106Z,9.23
2018-12-23T03:23:36.471Z,8.90
2018-12-23T03:26:03.829Z,7.40
2018-12-23T03:28:31.191Z,7.30
2018-12-23T03:30:58.527Z,7.30
2018-12-23T03:33:25.879Z,7.00
2018-12-23T03:35:53.240Z,7.00
2018-12-23T03:38:20.609Z,6.90
2018-12-23T03:40:47.952Z,6.80
2018-12-23T03:43:15.571Z,6.90
2018-12-23T03:45:42.992Z,7.17
2018-12-23T03:48:10.381Z,7.00
2018-12-23T03:50:37.780Z,7.83
2018-12-23T03:53:05.141Z,7.20
2018-12-23T03:55:32.496Z,7.03
2018-12-23T03:57:59.846Z,7.33
2018-12-23T04:00:27.191Z,7.43
2018-12-23T04:02:54.539Z,6.90
2018-12-23T04:05:21.891Z,7.40
2018-12-23T04:07:49.255Z,7.93
2018-12-23T04:10:16.620Z,7.90
2018-12-23T04:12:43.992Z,8.10
2018-12-23T04:15:11.316Z,7.60
2018-12-23T04:17:38.648Z,8.43
2018-12-23T04:20:06.036Z,7.90
2018-12-23T04:22:33.394Z,8.07
2018-12-23T04:25:00.866Z,7.83
2018-12-23T04:27:28.188Z,7.50
2018-12-23T04:29:55.542Z,8.40
2018-12-23T04:32:22.907Z,8.23
2018-12-23T04:34:50.261Z,10.97
2018-12-23T04:37:17.620Z,11.40
2018-12-23T04:39:44.981Z,12.00
2018-12-23T04:42:12.307Z,12.33
2018-12-23T04:44:39.698Z,10.03
2018-12-23T04:47:07.060Z,12.00
2018-12-23T04:49:34.378Z,12.60
2018-12-23T04:52:01.738Z,12.70
2018-12-23T04:54:29.097Z,14.90
2018-12-23T04:56:56.466Z,14.30
2018-12-23T04:59:23.802Z,13.93
2018-12-23T05:01:51.428Z,13.23
2018-12-23T05:04:18.814Z,14.50
2018-12-23T05:06:46.172Z,13.17
2018-12-23T05:09:13.566Z,14.40
2018-12-23T05:11:40.887Z,14.17
2018-12-23T05:14:08.241Z,15.53
2018-12-23T05:16:35.608Z,14.90
2018-12-23T05:19:02.944Z,13.40
2018-12-23T05:21:30.322Z,14.93
2018-12-23T05:23:57.662Z,15.40
2018-12-23T05:26:25.034Z,16.17
2018-12-23T05:28:52.366Z,15.10
2018-12-23T05:31:19.719Z,16.50
2018-12-23T05:33:47.467Z,15.23
2018-12-23T05:36:14.839Z,16.13
2018-12-23T05:38:42.194Z,16.20
2018-12-23T05:41:09.562Z,15.27
2018-12-23T05:43:37.028Z,16.30
2018-12-23T05:46:04.404Z,14.80
2018-12-23T05:48:31.715Z,16.23
2018-12-23T05:50:59.080Z,15.40
2018-12-23T05:53:26.440Z,13.83
2018-12-23T05:55:53.255Z,15.90
2018-12-23T05:58:20.646Z,15.13
2018-12-23T06:00:47.990Z,15.30
2018-12-23T06:03:15.373Z,15.60
2018-12-23T06:05:42.784Z,16.40
2018-12-23T06:08:10.193Z,15.63
2018-12-23T06:10:37.610Z,17.80
2018-12-23T06:13:04.955Z,15.40
2018-12-23T06:15:32.333Z,15.10
2018-12-23T06:17:59.687Z,13.90
2018-12-23T06:20:27.040Z,15.87
2018-12-23T06:22:54.387Z,16.13
2018-12-23T06:25:21.733Z,13.27
2018-12-23T06:27:49.362Z,14.47
2018-12-23T06:30:16.851Z,12.73
2018-12-23T06:32:44.203Z,15.50
2018-12-23T06:35:11.568Z,15.00
2018-12-23T06:37:38.914Z,14.70
2018-12-23T06:40:06.402Z,16.13
2018-12-23T06:42:33.764Z,16.57
2018-12-23T06:45:01.336Z,16.37
2018-12-23T06:47:28.740Z,14.10
2018-12-23T06:49:56.120Z,15.20
2018-12-23T06:52:23.611Z,15.10
2018-12-23T06:54:51.013Z,13.83
2018-12-23T06:57:18.400Z,13.07
2018-12-23T06:59:45.718Z,13.90
2018-12-23T07:02:13.086Z,15.97
2018-12-23T07:04:40.454Z,14.63
2018-12-23T07:07:07.808Z,17.13
2018-12-23T07:09:35.178Z,18.17
2018-12-23T07:12:02.583Z,16.30
2018-12-23T07:14:29.955Z,15.60
2018-12-23T07:16:57.279Z,13.50
2018-12-23T07:19:24.675Z,13.13
2018-12-23T07:21:52.021Z,12.13
2018-12-23T07:24:19.372Z,13.40
2018-12-23T07:26:46.752Z,13.77
2018-12-23T07:29:14.171Z,17.20
2018-12-23T07:31:42.272Z,18.57
2018-12-23T07:34:09.731Z,22.73
2018-12-23T07:36:37.172Z,20.20
2018-12-23T07:39:05.262Z,15.37
2018-12-23T07:42:57.056Z,12.67
2018-12-23T07:45:24.432Z,10.00
2018-12-23T07:47:51.808Z,14.57
2018-12-23T07:50:19.338Z,15.07
2018-12-23T07:52:47.058Z,12.27
2018-12-23T07:55:14.469Z,10.37
2018-12-23T07:57:41.939Z,11.27
2018-12-23T08:00:09.415Z,11.93
2018-12-23T08:02:36.820Z,11.80
2018-12-23T08:13:02.416Z,12.03
2018-12-23T08:15:30.835Z,11.50
2018-12-23T08:17:59.312Z,16.73
2018-12-23T08:20:27.728Z,15.27
2018-12-23T08:22:55.988Z,16.60
2018-12-23T08:25:24.363Z,15.43
2018-12-23T08:27:52.752Z,13.50
2018-12-23T08:30:21.047Z,20.60
2018-12-23T08:32:49.411Z,22.10
2018-12-23T08:35:17.675Z,35.27
2018-12-23T08:37:45.961Z,24.17
2018-12-23T08:40:14.205Z,24.37
2018-12-23T08:42:42.531Z,18.90
2018-12-23T08:45:29.625Z,17.57
2018-12-23T08:47:57.928Z,17.23
2018-12-23T08:50:26.171Z,16.80
2018-12-23T08:52:54.468Z,15.83
2018-12-23T08:55:22.728Z,16.93
2018-12-23T08:57:51.095Z,15.97
2018-12-23T09:03:01.719Z,15.97
2018-12-23T09:05:29.979Z,16.70
2018-12-23T09:07:58.334Z,15.90
2018-12-23T09:10:27.191Z,16.27
2018-12-23T09:12:56.600Z,16.83
2018-12-23T09:18:19.306Z,27.47
2018-12-23T09:20:43.349Z,27.60
2018-12-23T09:23:11.642Z,25.00
2018-12-23T09:25:39.928Z,16.67
2018-12-23T09:28:08.994Z,15.80
2018-12-23T09:30:38.231Z,15.33
2018-12-23T09:33:06.731Z,14.93
2018-12-23T09:35:35.491Z,13.90
2018-12-23T09:38:03.996Z,14.90
2018-12-23T09:40:32.422Z,14.80
2018-12-23T09:43:00.836Z,14.60
2018-12-23T09:45:29.350Z,16.00
2018-12-23T09:50:45.667Z,17.10
2018-12-23T09:53:13.911Z,15.93
2018-12-23T09:55:42.353Z,15.70
2018-12-23T10:00:53.275Z,19.20
2018-12-23T10:03:21.692Z,17.37
2018-12-23T10:05:49.920Z,15.13
2018-12-23T10:08:18.325Z,17.80
2018-12-23T10:10:49.157Z,16.87
2018-12-23T10:13:17.665Z,16.70
2018-12-23T10:15:46.628Z,19.50
2018-12-23T10:18:15.518Z,19.07
2018-12-23T10:20:43.872Z,18.60
2018-12-23T10:23:12.166Z,16.60
2018-12-23T10:25:40.835Z,15.93
2018-12-23T10:28:09.152Z,17.17
2018-12-23T10:30:37.728Z,18.67
2018-12-23T10:33:06.140Z,19.33
2018-12-23T10:35:34.467Z,19.00
2018-12-23T10:38:02.740Z,18.00
2018-12-23T10:40:31.032Z,18.20
2018-12-23T10:43:01.283Z,18.57
2018-12-23T10:45:29.289Z,19.80
2018-12-23T10:47:57.572Z,18.57
2018-12-23T10:50:25.990Z,18.40
2018-12-23T10:52:54.242Z,18.93
2018-12-23T10:55:22.619Z,18.90
2018-12-23T10:57:50.899Z,19.77
2018-12-23T11:00:19.281Z,18.23
2018-12-23T11:02:47.654Z,19.77
2018-12-23T11:05:15.949Z,19.03
2018-12-23T11:07:44.193Z,16.43
2018-12-23T11:10:12.489Z,16.70
2018-12-23T11:12:40.740Z,15.23
2018-12-23T11:15:09.062Z,16.63
2018-12-23T11:17:37.314Z,16.37
2018-12-23T11:20:06.334Z,18.37
2018-12-23T11:22:34.560Z,16.93
2018-12-23T11:25:02.847Z,15.53
2018-12-23T11:27:31.143Z,17.23
2018-12-23T11:29:59.395Z,16.80
2018-12-23T11:32:27.679Z,16.97
2018-12-23T11:34:56.070Z,20.50
2018-12-23T11:37:24.560Z,18.23
2018-12-23T11:39:53.029Z,16.60
2018-12-23T11:42:21.497Z,17.47
2018-12-23T11:44:49.885Z,16.43
2018-12-23T11:47:18.439Z,16.23
2018-12-23T11:49:46.899Z,17.97
2018-12-23T11:52:15.661Z,17.50
2018-12-23T11:54:44.111Z,15.93
2018-12-23T11:57:12.516Z,15.77
2018-12-23T11:59:40.856Z,15.97
2018-12-23T12:02:15.237Z,15.87
2018-12-23T12:04:39.282Z,14.70
2018-12-23T12:07:08.067Z,14.93
2018-12-23T12:09:36.389Z,16.23
2018-12-23T12:12:05.063Z,17.37
2018-12-23T12:14:33.489Z,15.57
2018-12-23T12:17:01.968Z,15.87
2018-12-23T12:22:12.741Z,18.30
2018-12-23T12:24:41.113Z,17.40
2018-12-23T12:27:09.492Z,18.03
2018-12-23T12:29:37.937Z,16.40
2018-12-23T12:32:06.364Z,12.73
2018-12-23T12:34:34.745Z,10.00
2018-12-23T12:37:03.261Z,17.80
2018-12-23T12:39:31.676Z,12.30
2018-12-23T12:42:00.063Z,13.10
2018-12-23T12:44:28.452Z,12.20
2018-12-23T12:46:56.904Z,10.93
2018-12-23T12:49:25.368Z,12.00
2018-12-23T12:51:53.816Z,10.50
2018-12-23T12:54:22.645Z,10.27
2018-12-23T12:56:51.033Z,8.80
2018-12-23T12:59:19.499Z,9.10
2018-12-23T13:01:48.121Z,8.37
2018-12-23T13:07:24.332Z,11.30
2018-12-23T13:09:52.775Z,11.47
2018-12-23T13:12:21.203Z,20.77
2018-12-23T13:14:49.634Z,22.57
2018-12-23T13:17:17.927Z,20.67
2018-12-23T13:19:46.247Z,18.27
2018-12-23T13:22:14.592Z,19.40
2018-12-23T13:24:42.888Z,15.67
2018-12-23T13:27:11.170Z,16.93
2018-12-23T13:29:39.444Z,17.80
2018-12-23T13:32:07.741Z,19.67
2018-12-23T13:34:35.993Z,19.90
2018-12-23T13:37:04.258Z,12.80
2018-12-23T13:39:32.649Z,11.80
2018-12-23T13:42:19.881Z,14.60
2018-12-23T13:45:07.140Z,12.80
2018-12-23T13:47:54.653Z,11.30
2018-12-23T13:50:28.438Z,12.17
2018-12-23T13:53:15.678Z,12.47
2018-12-23T13:56:02.820Z,10.13
2018-12-23T13:58:50.049Z,9.10
2018-12-23T14:01:37.305Z,9.70
2018-12-23T14:04:14.307Z,8.83
2018-12-23T14:07:01.521Z,13.67
2018-12-23T14:09:48.790Z,7.93
2018-12-23T14:12:17.098Z,9.03
2018-12-23T14:14:45.493Z,9.23
2018-12-23T14:17:13.762Z,13.40
2018-12-23T14:19:42.016Z,10.17
2018-12-23T14:22:10.301Z,8.20
2018-12-23T14:24:38.697Z,8.60
2018-12-23T14:27:06.978Z,8.60
2018-12-23T14:29:35.337Z,8.30
2018-12-23T14:32:03.713Z,7.60
2018-12-23T14:34:32.120Z,7.90
2018-12-23T14:37:00.367Z,8.17
2018-12-23T14:39:28.800Z,9.60
2018-12-23T14:41:57.118Z,9.23
2018-12-23T14:44:25.438Z,8.40
2018-12-23T14:46:53.796Z,9.40
2018-12-23T14:49:22.035Z,9.23
2018-12-23T14:51:50.385Z,9.03
2018-12-23T14:54:18.600Z,10.60
2018-12-23T14:56:46.905Z,10.33
2018-12-23T14:59:34.034Z,8.90
2018-12-23T15:04:44.844Z,9.27
2018-12-23T15:09:55.392Z,8.60
2018-12-23T15:15:07.079Z,8.47
2018-12-23T15:17:35.444Z,8.37
2018-12-23T15:20:03.824Z,7.77
2018-12-23T15:22:32.115Z,8.27
2018-12-23T15:27:48.663Z,9.50
2018-12-23T15:30:17.058Z,10.27
2018-12-23T15:32:45.304Z,8.70
2018-12-23T15:35:13.934Z,9.17
2018-12-23T15:37:42.738Z,8.93
2018-12-23T15:40:11.670Z,9.37
2018-12-23T15:45:23.436Z,8.70
2018-12-23T15:50:35.490Z,12.33
2018-12-23T15:53:03.771Z,10.23
2018-12-23T15:58:14.864Z,9.03
2018-12-23T16:00:43.234Z,10.47
2018-12-23T16:03:11.540Z,11.33
2018-12-23T16:05:58.713Z,12.33
2018-12-23T16:08:27.013Z,9.90
2018-12-23T16:10:55.540Z,11.13
2018-12-23T16:13:23.870Z,11.47
2018-12-23T16:15:52.347Z,12.90
2018-12-23T16:18:20.746Z,18.43
2018-12-23T16:20:49.107Z,14.20
2018-12-23T16:23:17.414Z,15.67
2018-12-23T16:25:46.370Z,39.00
2018-12-23T16:28:15.243Z,28.07
2018-12-23T16:30:45.169Z,21.70
2018-12-23T16:33:13.894Z,13.20
2018-12-23T16:35:42.129Z,17.13
2018-12-23T16:38:10.444Z,16.47
2018-12-23T16:40:38.689Z,32.47
2018-12-23T16:43:06.974Z,28.87
2018-12-23T16:45:35.356Z,16.83
2018-12-23T16:48:03.619Z,16.63
2018-12-23T16:50:32.004Z,11.70
2018-12-23T16:53:00.288Z,17.03
2018-12-23T16:55:28.545Z,32.30
2018-12-23T16:57:56.942Z,21.30
2018-12-23T17:00:25.422Z,22.23
2018-12-23T17:02:53.785Z,22.70
2018-12-23T17:05:22.207Z,18.73
2018-12-23T17:07:50.485Z,18.43
2018-12-23T17:10:18.968Z,18.40
2018-12-23T17:12:47.187Z,21.10
2018-12-23T17:18:02.838Z,34.10
2018-12-23T17:20:31.126Z,29.27
2018-12-23T17:22:59.614Z,32.50
2018-12-23T17:25:27.825Z,26.97
2018-12-23T17:27:56.201Z,28.17
2018-12-23T17:30:24.720Z,28.30
2018-12-23T17:32:52.982Z,30.63
2018-12-23T17:35:21.988Z,29.43
2018-12-23T17:37:50.658Z,34.47
2018-12-23T17:43:01.554Z,31.47
2018-12-23T17:45:30.199Z,32.60
2018-12-23T17:47:58.493Z,31.80
2018-12-23T17:50:27.585Z,29.30
2018-12-23T17:55:39.699Z,29.37
2018-12-23T18:00:51.316Z,24.80
2018-12-23T18:03:19.610Z,25.80
2018-12-23T18:05:48.036Z,30.30
2018-12-23T18:08:16.878Z,32.87
2018-12-23T18:10:45.556Z,26.00
2018-12-23T18:13:14.578Z,25.47
2018-12-23T18:15:42.967Z,20.57
2018-12-23T18:18:11.294Z,24.53
2018-12-23T18:20:39.949Z,21.70
2018-12-23T18:23:08.470Z,22.40
2018-12-23T18:25:36.788Z,23.60
2018-12-23T18:28:04.999Z,21.20
2018-12-23T18:30:33.315Z,22.50
2018-12-23T18:33:01.586Z,21.70
2018-12-23T18:35:29.831Z,18.30
2018-12-23T18:37:58.836Z,13.83
2018-12-23T18:40:33.329Z,19.43
2018-12-23T18:42:57.145Z,22.27
2018-12-23T18:45:25.531Z,23.27
2018-12-23T18:47:53.793Z,24.40
2018-12-23T18:50:22.092Z,22.97
2018-12-23T18:52:50.437Z,21.70
2018-12-23T18:55:18.898Z,23.17
2018-12-23T18:57:47.833Z,20.77
2018-12-23T19:00:16.091Z,22.70
2018-12-23T19:02:46.855Z,24.50
2018-12-23T19:05:15.199Z,23.53
2018-12-23T19:07:44.029Z,22.43
2018-12-23T19:10:17.625Z,22.17
2018-12-23T19:13:04.774Z,23.40
2018-12-23T19:15:52.105Z,25.07
2018-12-23T19:18:39.272Z,23.70
2018-12-23T19:21:26.529Z,23.87
2018-12-23T19:24:13.744Z,29.47
2018-12-23T19:27:00.975Z,27.87
2018-12-23T19:29:36.603Z,27.33
2018-12-23T19:32:23.835Z,27.90
2018-12-23T19:35:11.081Z,27.20
2018-12-23T19:37:58.653Z,28.80
2018-12-23T19:40:50.365Z,17.40
2018-12-23T19:43:34.777Z,15.57
2018-12-23T19:46:21.984Z,15.73
2018-12-23T19:49:00.370Z,22.60
2018-12-23T19:51:47.516Z,22.63
2018-12-23T19:54:34.862Z,20.90
2018-12-23T19:57:22.073Z,20.40
2018-12-23T20:00:09.216Z,20.10
2018-12-23T20:02:56.410Z,19.53
2018-12-23T20:05:43.582Z,19.80
2018-12-23T20:08:30.845Z,20.00
2018-12-23T20:11:18.086Z,17.83
2018-12-23T20:14:05.257Z,13.80
2018-12-23T20:16:40.283Z,14.40
2018-12-23T20:19:14.926Z,13.70
2018-12-23T20:22:02.132Z,13.53
2018-12-23T20:24:49.381Z,14.60
2018-12-23T20:27:36.622Z,23.57
2018-12-23T20:30:23.846Z,19.40
2018-12-23T20:33:11.053Z,21.30
2018-12-23T20:35:58.269Z,20.40
2018-12-23T20:38:45.399Z,22.63
2018-12-23T20:41:32.900Z,20.10
2018-12-23T20:44:20.046Z,20.27
2018-12-23T20:47:07.247Z,18.93
2018-12-23T20:49:54.393Z,18.83
2018-12-23T20:52:41.718Z,18.60
2018-12-23T20:55:28.856Z,19.70
2018-12-23T20:58:16.028Z,20.83
2018-12-23T21:01:03.165Z,20.17
2018-12-23T21:03:50.408Z,18.73
2018-12-23T21:06:37.548Z,15.07
2018-12-23T21:09:24.732Z,16.50
2018-12-23T21:12:09.476Z,15.30
2018-12-23T21:14:56.644Z,16.03
2018-12-23T21:17:43.901Z,13.83
2018-12-23T21:20:31.238Z,14.90
2018-12-23T21:23:18.456Z,14.83
2018-12-23T21:26:05.613Z,16.37
2018-12-23T21:28:52.803Z,15.43
2018-12-23T21:31:39.962Z,26.37
2018-12-23T21:34:27.096Z,22.80
2018-12-23T21:37:14.356Z,24.00
2018-12-23T21:39:56.251Z,26.57
2018-12-23T21:42:43.421Z,26.03
2018-12-23T21:45:30.676Z,33.03
2018-12-23T21:48:17.922Z,28.10
2018-12-23T21:51:05.071Z,27.50
2018-12-23T21:53:52.624Z,22.60
2018-12-23T21:56:39.979Z,21.30
2018-12-23T21:59:27.205Z,20.77
2018-12-23T22:02:14.339Z,23.83
2018-12-23T22:05:01.682Z,25.70
2018-12-23T22:07:48.823Z,28.00
2018-12-23T22:10:23.684Z,37.87
2018-12-23T22:13:10.821Z,39.93
2018-12-23T22:15:39.077Z,30.80
2018-12-23T22:18:07.315Z,30.83
2018-12-23T22:20:37.153Z,28.47
2018-12-23T22:23:05.607Z,26.07
2018-12-23T22:25:33.907Z,33.10
2018-12-23T22:28:02.149Z,27.93
2018-12-23T22:30:30.538Z,27.57
2018-12-23T22:32:59.434Z,24.30
2018-12-23T22:35:28.832Z,22.23
2018-12-23T22:37:57.117Z,30.63
2018-12-23T22:40:25.447Z,29.77
2018-12-23T22:42:53.777Z,32.00
2018-12-23T22:45:22.139Z,26.83
2018-12-23T22:47:50.408Z,19.37
2018-12-23T22:53:00.993Z,17.50
2018-12-23T22:55:29.300Z,13.00
2018-12-23T22:57:57.990Z,14.10
2018-12-23T23:06:17.591Z,13.67
2018-12-23T23:08:46.095Z,14.30
2018-12-23T23:11:14.313Z,20.50
2018-12-23T23:13:42.611Z,27.27
2018-12-23T23:16:10.892Z,29.03
2018-12-23T23:18:39.190Z,30.87
2018-12-23T23:21:07.608Z,34.43
2018-12-23T23:23:35.917Z,40.33
2018-12-23T23:26:04.282Z,37.70
2018-12-23T23:28:32.598Z,37.30
2018-12-23T23:31:00.832Z,41.97
2018-12-23T23:33:29.179Z,40.33
2018-12-23T23:35:57.524Z,40.30
2018-12-23T23:38:25.933Z,39.50
2018-12-23T23:40:55.790Z,36.53
2018-12-23T23:46:06.412Z,34.03
2018-12-23T23:48:34.767Z,34.53
2018-12-23T23:51:03.045Z,34.17
2018-12-23T23:53:31.363Z,36.70
2018-12-23T23:55:59.688Z,35.63
2018-12-23T23:58:28.004Z,33.40
